createdAt,value
2023-03-23T15:57:52.115Z,29.02
2023-03-23T16:07:55.490Z,27.20
2023-03-23T16:18:00.797Z,31.73
2023-03-23T16:28:04.659Z,33.38
2023-03-23T16:38:08.960Z,25.92
2023-03-23T16:48:13.798Z,16.20
2023-03-23T16:58:17.720Z,18.38
2023-03-23T17:08:24.470Z,12.48
2023-03-23T17:18:28.396Z,12.95
2023-03-23T17:28:31.774Z,12.88
2023-03-23T17:38:33.746Z,13.00
2023-03-23T17:48:38.488Z,18.00
2023-03-23T17:58:40.760Z,17.52
2023-03-23T18:08:46.986Z,16.38
2023-03-23T18:18:49.096Z,13.75
2023-03-23T18:28:52.936Z,18.75
2023-03-23T18:38:56.922Z,20.30
2023-03-23T18:49:00.240Z,14.10
2023-03-23T18:59:02.158Z,19.55
2023-03-23T19:09:05.537Z,7.30
2023-03-23T19:19:07.792Z,9.68
2023-03-23T19:39:19.234Z,10.07
2023-03-23T19:49:22.553Z,16.05
2023-03-23T19:59:25.238Z,9.02
2023-03-23T20:09:31.041Z,10.00
2023-03-23T20:19:33.295Z,9.82
2023-03-23T20:29:36.660Z,8.90
2023-03-23T20:39:38.612Z,8.70
2023-03-23T20:49:53.016Z,7.75
2023-03-23T21:00:05.644Z,4.63
2023-03-23T21:10:09.173Z,10.68
2023-03-23T21:20:14.414Z,10.70
2023-03-23T21:30:18.099Z,12.43
2023-03-23T21:40:20.922Z,5.32
2023-03-23T21:50:24.494Z,5.82
2023-03-23T22:00:28.395Z,6.90
2023-03-23T22:10:31.779Z,7.57
2023-03-23T22:20:33.851Z,8.80
2023-03-23T22:30:37.631Z,10.48
2023-03-23T22:40:39.635Z,6.32
2023-03-23T22:50:47.294Z,8.20
2023-03-23T23:00:55.860Z,8.32
2023-03-23T23:11:04.538Z,12.98
2023-03-23T23:21:08.474Z,17.73
2023-03-23T23:31:22.799Z,8.45
2023-03-23T23:41:26.298Z,9.30
2023-03-23T23:51:29.841Z,9.77
